Time;durP1;ratioP1;P1;durP2;ratioP2;P2;SDS_P1;SDS_P2;PMS_P1;PMS_P2;Temp;Humidity;BMP_temperature;BMP_pressure;BME280_temperature;BME280_humidity;BME280_pressure;Samples;Min_cycle;Max_cycle;Signal;HPM_P1;HPM_P2
2024/04/21 04:00:29;;;;;;;1.00;0.90;;;2.80;97.30;;;;;;6413834;21;21548;31
2024/04/21 04:03:21;;;;;;;1.43;1.33;;;2.80;97.30;;;;;;5230408;27;20480;-88
2024/04/21 04:05:50;;;;;;;1.90;1.80;;;2.80;97.30;;;;;;5232496;27;20478;-88
2024/04/21 04:08:18;;;;;;;0.90;0.80;;;2.80;97.30;;;;;;5263276;27;20478;-88
2024/04/21 04:10:51;;;;;;;1.10;1.00;;;2.80;97.30;;;;;;5236976;27;20490;-87
2024/04/21 04:13:30;;;;;;;1.07;1.00;;;2.80;97.30;;;;;;5265643;27;20593;-87
2024/04/21 04:15:59;;;;;;;1.17;1.10;;;2.90;97.30;;;;;;5230282;27;20513;-86
2024/04/21 04:18:28;;;;;;;1.83;1.83;;;2.90;97.30;;;;;;5237701;27;20619;-87
2024/04/21 04:21:01;;;;;;;1.00;0.90;;;2.90;97.30;;;;;;5240339;27;20521;-87
2024/04/21 04:23:28;;;;;;;3.47;1.63;;;3.00;97.30;;;;;;5240966;27;20493;-85
2024/04/21 04:25:54;;;;;;;1.10;1.00;;;2.90;97.30;;;;;;5237948;27;20473;-87
2024/04/21 04:28:20;;;;;;;0.97;0.87;;;2.90;97.30;;;;;;5243437;27;20850;-87
2024/04/21 04:30:46;;;;;;;1.10;1.00;;;2.80;97.30;;;;;;5267334;27;20246;-88
2024/04/21 04:33:11;;;;;;;1.70;1.60;;;2.70;97.30;;;;;;5238219;27;20518;-87
2024/04/21 04:35:39;;;;;;;1.00;0.90;;;2.50;97.30;;;;;;5292864;26;20242;-88
2024/04/21 04:38:05;;;;;;;1.53;1.20;;;2.40;97.30;;;;;;5238299;27;20238;-87
2024/04/21 04:40:32;;;;;;;1.00;0.90;;;2.30;97.30;;;;;;5241422;27;20526;-86
2024/04/21 04:42:58;;;;;;;6.20;1.80;;;2.30;97.30;;;;;;5251209;27;20285;-86
2024/04/21 04:45:23;;;;;;;1.53;1.43;;;2.30;97.30;;;;;;5261841;27;20473;-86
2024/04/21 04:47:49;;;;;;;1.20;1.10;;;2.20;97.30;;;;;;5240218;27;20473;-87
2024/04/21 04:50:15;;;;;;;2.23;2.03;;;2.20;97.30;;;;;;5240906;27;20238;-87
2024/04/21 04:52:40;;;;;;;1.77;1.20;;;2.20;97.30;;;;;;5239770;27;20250;-87
2024/04/21 04:55:06;;;;;;;2.63;1.80;;;2.20;97.30;;;;;;5238762;27;20307;-86
2024/04/21 04:57:31;;;;;;;3.27;2.30;;;2.20;97.30;;;;;;5240796;27;20269;-87
2024/04/21 04:59:57;;;;;;;1.13;1.03;;;2.20;97.30;;;;;;5240644;27;20242;-86
2024/04/21 05:02:22;;;;;;;1.07;1.00;;;2.30;97.30;;;;;;5240599;27;20246;-87
2024/04/21 05:04:48;;;;;;;1.17;1.07;;;2.30;97.30;;;;;;5240397;27;20250;-87
2024/04/21 05:07:13;;;;;;;1.60;1.50;;;2.30;97.30;;;;;;5240899;27;20234;-88
2024/04/21 05:09:39;;;;;;;1.00;0.90;;;2.30;97.30;;;;;;5240175;27;20239;-87
2024/04/21 05:12:05;;;;;;;1.30;1.23;;;2.30;97.30;;;;;;5240828;27;20277;-88
2024/04/21 05:14:30;;;;;;;0.90;0.80;;;2.30;97.30;;;;;;5242471;27;20764;-87
2024/04/21 05:16:55;;;;;;;1.90;1.87;;;2.30;97.30;;;;;;5240886;27;20235;-88
2024/04/21 05:19:21;;;;;;;1.47;1.37;;;2.30;97.30;;;;;;5240690;27;20265;-87
2024/04/21 05:21:49;;;;;;;1.60;1.50;;;2.30;97.30;;;;;;5242448;27;20660;-88
2024/04/21 05:24:18;;;;;;;1.43;1.33;;;2.40;97.30;;;;;;5241688;27;20364;-87
2024/04/21 05:26:44;;;;;;;1.10;1.00;;;2.40;97.30;;;;;;5239183;27;20538;-87
2024/04/21 05:29:10;;;;;;;2.17;2.03;;;2.40;97.30;;;;;;5242971;27;20510;-84
2024/04/21 05:31:36;;;;;;;1.53;1.30;;;2.40;97.30;;;;;;5267212;27;20238;-87
2024/04/21 05:34:01;;;;;;;1.87;1.77;;;2.50;97.30;;;;;;5254060;27;20462;-87
2024/04/21 05:36:27;;;;;;;1.83;1.77;;;2.50;97.30;;;;;;5238013;27;20550;-87
2024/04/21 05:38:52;;;;;;;1.27;1.17;;;2.60;97.30;;;;;;5239633;27;20231;-84
2024/04/21 05:41:18;;;;;;;1.67;1.13;;;2.60;97.30;;;;;;5239912;27;20284;-88
2024/04/21 05:43:46;;;;;;;1.63;1.53;;;2.60;97.30;;;;;;5240097;27;20234;-88
2024/04/21 05:46:12;;;;;;;1.10;1.00;;;2.60;97.30;;;;;;5240612;27;20621;-87
2024/04/21 05:48:37;;;;;;;1.47;1.40;;;2.60;97.30;;;;;;5241405;27;20465;-87
2024/04/21 05:51:03;;;;;;;1.13;1.13;;;2.60;97.30;;;;;;5239142;27;20277;-87
2024/04/21 05:53:28;;;;;;;1.47;1.37;;;2.60;97.30;;;;;;5311641;26;20753;-85
2024/04/21 05:55:54;;;;;;;1.10;1.00;;;2.70;97.30;;;;;;5239602;27;20230;-87
2024/04/21 05:58:50;;;;;;;1.20;1.10;;;2.70;97.30;;;;;;5240191;27;20277;-87
2024/04/21 06:01:19;;;;;;;1.30;1.30;;;2.70;97.30;;;;;;5234379;27;21053;-88
2024/04/21 06:03:51;;;;;;;0.90;0.80;;;2.80;97.30;;;;;;5291697;26;20521;-88
2024/04/21 06:06:40;;;;;;;1.40;1.30;;;2.80;97.30;;;;;;5238095;27;21050;-87
2024/04/21 06:09:18;;;;;;;0.90;0.80;;;2.90;97.30;;;;;;5239475;27;20526;-89
2024/04/21 06:11:52;;;;;;;1.17;1.07;;;2.90;97.30;;;;;;5237736;27;20528;-88
2024/04/21 06:14:20;;;;;;;1.10;1.00;;;3.00;97.30;;;;;;5241318;27;20599;-86
2024/04/21 06:16:52;;;;;;;1.40;1.30;;;3.10;97.30;;;;;;5233666;27;20931;-88
2024/04/21 06:19:20;;;;;;;1.83;1.73;;;3.20;97.30;;;;;;5238924;27;20485;-87
2024/04/21 06:21:49;;;;;;;2.23;2.10;;;3.30;97.30;;;;;;5236645;27;20557;-88
2024/04/21 06:24:21;;;;;;;2.87;1.63;;;3.30;97.30;;;;;;5238935;27;20551;-88
2024/04/21 06:26:50;;;;;;;1.10;1.00;;;3.50;97.30;;;;;;5236694;27;20634;-87
2024/04/21 06:29:18;;;;;;;1.23;1.13;;;3.60;97.30;;;;;;5239219;27;20474;-87
2024/04/21 06:32:19;;;;;;;1.60;1.50;;;3.70;97.30;;;;;;5244015;27;20473;-86
2024/04/21 06:34:59;;;;;;;0.93;0.83;;;3.80;97.30;;;;;;5206466;27;20514;-87
2024/04/21 06:37:49;;;;;;;1.10;1.00;;;3.90;97.30;;;;;;5202278;27;20576;-87
2024/04/21 06:40:30;;;;;;;3.77;1.80;;;4.00;97.30;;;;;;5171979;27;20487;-86
2024/04/21 06:43:11;;;;;;;0.90;0.80;;;4.00;97.30;;;;;;5233220;27;20555;-86
2024/04/21 06:46:01;;;;;;;1.40;1.30;;;4.10;97.30;;;;;;5200556;27;20914;-84
2024/04/21 06:48:41;;;;;;;0.97;0.87;;;4.10;97.30;;;;;;5179077;27;20559;-87
2024/04/21 06:51:10;;;;;;;0.90;0.80;;;4.20;97.30;;;;;;5241009;27;20480;-87
2024/04/21 06:53:41;;;;;;;1.60;1.50;;;4.30;97.30;;;;;;5250922;27;20594;-85
2024/04/21 06:56:42;;;;;;;1.10;1.03;;;4.40;97.30;;;;;;5237633;27;20529;-87
2024/04/21 06:59:22;;;;;;;2.40;1.33;;;4.50;97.30;;;;;;5239403;27;20482;-87
2024/04/21 07:01:51;;;;;;;2.80;2.60;;;4.60;97.30;;;;;;5236150;27;20589;-87
2024/04/21 07:04:21;;;;;;;1.27;1.17;;;4.70;97.30;;;;;;5233483;27;20482;-87
2024/04/21 07:07:20;;;;;;;1.43;1.33;;;4.80;97.30;;;;;;5234043;27;20596;-87
2024/04/21 07:09:51;;;;;;;1.53;1.40;;;5.00;97.30;;;;;;5237667;27;20530;-83
2024/04/21 07:12:41;;;;;;;1.33;1.23;;;5.10;97.30;;;;;;5240155;27;20481;-85
2024/04/21 07:15:11;;;;;;;1.47;1.30;;;5.10;97.30;;;;;;5228402;27;20912;-86
2024/04/21 07:17:59;;;;;;;2.00;1.20;;;5.10;97.30;;;;;;5238905;27;20868;-86
2024/04/21 07:20:31;;;;;;;1.53;1.50;;;5.10;97.30;;;;;;5240996;27;20462;-88
2024/04/21 07:26:31;;;;;;;1.17;1.07;;;5.20;97.30;;;;;;5198612;27;20708;-87
2024/04/21 07:29:02;;;;;;;2.93;1.50;;;5.10;97.30;;;;;;5176635;27;20538;-88
2024/04/21 07:31:30;;;;;;;0.90;0.80;;;5.10;97.30;;;;;;5200311;27;20487;-86
2024/04/21 07:34:01;;;;;;;2.73;1.73;;;5.00;97.30;;;;;;5176340;27;20523;-87
2024/04/21 07:36:30;;;;;;;1.47;1.30;;;4.90;97.30;;;;;;5203698;27;20783;-88
2024/04/21 07:39:01;;;;;;;1.20;1.03;;;5.00;97.30;;;;;;5199774;27;20538;-88
2024/04/21 07:41:30;;;;;;;2.50;2.30;;;5.00;97.30;;;;;;5172306;27;20581;-87
2024/04/21 07:44:28;;;;;;;1.87;1.77;;;5.20;97.30;;;;;;5238414;27;20485;-87
2024/04/21 07:47:01;;;;;;;1.43;1.33;;;5.30;97.30;;;;;;5245841;27;20481;-87
2024/04/21 07:49:30;;;;;;;2.63;1.83;;;5.60;97.30;;;;;;5242910;27;20477;-87
2024/04/21 07:52:11;;;;;;;;;;;;;;;;;;;;;
2024/04/21 07:54:40;;;;;;;1.80;1.70;;;6.00;97.30;;;;;;5210030;27;20477;-87
2024/04/21 07:57:40;;;;;;;1.30;1.20;;;6.10;97.30;;;;;;5296237;26;20541;-87
2024/04/21 08:00:21;;;;;;;2.97;1.43;;;6.20;97.30;;;;;;5151815;27;20535;-86
2024/04/21 08:03:31;;;;;;;2.80;2.60;;;6.20;97.30;;;;;;5237895;27;20489;-88
2024/04/21 08:06:12;;;;;;;1.00;0.90;;;6.10;97.30;;;;;;5237902;27;21007;-88
2024/04/21 08:11:49;;;;;;;1.57;1.47;;;5.90;97.30;;;;;;5230617;27;20527;-86
2024/04/21 08:14:21;;;;;;;1.20;1.10;;;6.10;97.30;;;;;;5259930;27;21107;-85
2024/04/21 08:17:22;;;;;;;2.00;1.23;;;6.30;97.30;;;;;;5259599;27;20240;-85
2024/04/21 08:19:52;;;;;;;1.10;1.00;;;6.30;97.30;;;;;;5252115;27;20472;-85
2024/04/21 08:23:32;;;;;;;;;;;;;;;;;;;;;
2024/04/21 08:29:51;;;;;;;1.10;1.00;;;6.30;97.30;;;;;;5165073;27;20545;-85
2024/04/21 08:35:31;;;;;;;3.13;1.70;;;6.30;97.30;;;;;;5163326;27;20902;-86
2024/04/21 08:38:00;;;;;;;1.20;1.10;;;6.40;97.30;;;;;;5153221;27;21339;-87
2024/04/21 08:47:40;;;;;;;1.13;1.10;;;6.70;97.30;;;;;;5105842;27;20561;-87
2024/04/21 08:50:19;;;;;;;1.10;1.00;;;6.60;97.30;;;;;;5082157;27;20547;-88
2024/04/21 08:52:51;;;;;;;2.43;1.07;;;6.50;97.30;;;;;;5107308;27;20479;-84
2024/04/21 08:55:32;;;;;;;2.17;2.00;;;6.50;97.30;;;;;;5155519;27;20472;-87
2024/04/21 08:58:00;;;;;;;1.47;1.37;;;6.50;97.30;;;;;;5205662;27;20604;-87
2024/04/21 09:00:31;;;;;;;1.00;0.90;;;6.50;97.30;;;;;;5236508;27;20582;-88
2024/04/21 09:03:31;;;;;;;0.80;0.80;;;6.60;97.30;;;;;;5237906;27;20949;-88
2024/04/21 09:06:11;;;;;;;42.40;1.90;;;6.60;97.30;;;;;;5234498;27;20473;-85
2024/04/21 09:08:50;;;;;;;4.33;2.30;;;6.70;97.30;;;;;;5239007;27;20481;-85
2024/04/21 09:12:09;;;;;;;0.80;0.70;;;6.80;97.30;;;;;;5227430;27;20481;-88
2024/04/21 09:14:11;;;;;;;1.37;1.27;;;7.00;97.30;;;;;;5243452;27;20466;-89
2024/04/21 09:17:12;;;;;;;1.50;1.40;;;7.10;96.20;;;;;;5236424;27;20518;-87
2024/04/21 09:19:40;;;;;;;1.30;1.20;;;7.00;95.60;;;;;;5232780;27;20473;-89
2024/04/21 09:22:09;;;;;;;1.93;1.30;;;6.90;96.50;;;;;;5238420;27;21079;-88
2024/04/21 09:24:40;;;;;;;1.17;1.10;;;6.80;95.80;;;;;;5237839;27;20523;-89
2024/04/21 09:27:09;;;;;;;1.10;1.00;;;6.90;96.80;;;;;;5236990;27;21062;-89
2024/04/21 09:29:39;;;;;;;1.40;1.30;;;6.90;97.30;;;;;;5240179;27;20473;-89
2024/04/21 09:32:09;;;;;;;1.73;1.67;;;7.00;97.30;;;;;;5238893;27;20532;-90
2024/04/21 09:35:09;;;;;;;1.60;1.13;;;7.20;97.30;;;;;;5237339;27;20482;-88
2024/04/21 09:37:47;;;;;;;1.60;1.50;;;7.10;96.10;;;;;;5228964;27;21149;-87
2024/04/21 09:40:21;;;;;;;1.00;0.90;;;7.20;95.50;;;;;;5275138;26;20869;-89
2024/04/21 09:42:50;;;;;;;0.80;0.70;;;7.10;94.70;;;;;;5260573;27;20485;-86
2024/04/21 09:45:20;;;;;;;4.83;1.70;;;7.10;94.50;;;;;;5236866;27;20529;-87
2024/04/21 09:47:49;;;;;;;1.90;1.77;;;7.20;94.60;;;;;;5240296;27;20473;-87
2024/04/21 09:50:32;;;;;;;1.53;1.00;;;7.20;95.90;;;;;;5239078;27;20643;-88
2024/04/21 09:53:01;;;;;;;1.63;1.53;;;7.20;95.30;;;;;;5240303;27;21094;-84
2024/04/21 09:55:40;;;;;;;2.37;1.50;;;7.30;96.50;;;;;;5238273;27;20841;-86
2024/04/21 09:58:12;;;;;;;1.30;1.13;;;7.60;95.40;;;;;;5238867;27;20901;-89
2024/04/21 10:00:41;;;;;;;2.83;2.07;;;7.90;96.40;;;;;;5238483;27;20958;-88
2024/04/21 10:03:09;;;;;;;1.00;0.90;;;8.00;94.80;;;;;;5238983;27;20598;-88
2024/04/21 10:05:36;;;;;;;1.30;1.20;;;7.90;94.10;;;;;;5235486;27;20478;-87
2024/04/21 10:08:04;;;;;;;1.00;0.90;;;7.90;92.90;;;;;;5244441;27;20535;-87
2024/04/21 10:10:31;;;;;;;1.00;0.90;;;7.90;92.60;;;;;;5239847;27;20554;-88
2024/04/21 10:12:57;;;;;;;18.20;1.83;;;8.10;93.30;;;;;;5240854;27;20474;-88
2024/04/21 10:15:27;;;;;;;1.63;1.53;;;8.40;93.00;;;;;;5237537;27;20543;-87
2024/04/21 10:18:02;;;;;;;1.90;1.40;;;8.50;92.40;;;;;;5239299;27;20532;-86
2024/04/21 10:20:37;;;;;;;2.20;1.10;;;8.40;90.60;;;;;;5233573;27;20764;-86
2024/04/21 10:23:06;;;;;;;0.90;0.80;;;8.30;91.20;;;;;;5246506;27;20486;-86
2024/04/21 10:25:33;;;;;;;0.90;0.80;;;8.10;90.70;;;;;;5236388;27;20477;-87
2024/04/21 10:28:05;;;;;;;1.23;1.20;;;8.00;91.10;;;;;;5232700;27;21099;-87
2024/04/21 10:30:30;;;;;;;1.63;1.53;;;7.90;90.30;;;;;;5266744;27;20482;-88
2024/04/21 10:33:00;;;;;;;1.37;1.27;;;8.00;91.20;;;;;;5234373;27;21116;-88
2024/04/21 10:35:33;;;;;;;1.53;1.50;;;8.30;91.00;;;;;;5239292;27;20260;-86
2024/04/21 10:38:02;;;;;;;1.40;1.30;;;8.70;91.40;;;;;;5238517;27;20474;-88
2024/04/21 10:40:29;;;;;;;10.37;2.30;;;8.60;87.20;;;;;;5238986;27;20538;-86
2024/04/21 10:42:56;;;;;;;1.33;1.23;;;8.90;86.90;;;;;;5239007;27;20534;-87
2024/04/21 10:45:22;;;;;;;1.10;1.00;;;9.20;88.20;;;;;;5237469;27;21011;-87
2024/04/21 10:47:48;;;;;;;2.00;1.23;;;9.50;88.40;;;;;;5239256;27;20525;-88
2024/04/21 10:50:13;;;;;;;1.10;1.00;;;9.70;89.10;;;;;;5253491;27;20297;-87
2024/04/21 10:52:39;;;;;;;0.90;0.80;;;9.50;86.80;;;;;;5237920;27;20618;-88
2024/04/21 10:55:06;;;;;;;1.00;0.90;;;9.00;85.50;;;;;;5240114;27;20284;-88
2024/04/21 10:57:32;;;;;;;6.90;1.67;;;9.30;88.10;;;;;;5237014;27;20242;-87
2024/04/21 10:59:58;;;;;;;1.00;0.90;;;9.70;88.40;;;;;;5238387;27;20481;-87
2024/04/21 11:02:24;;;;;;;1.17;1.10;;;9.60;86.50;;;;;;5239922;27;20587;-87
2024/04/21 11:04:49;;;;;;;0.97;0.87;;;9.60;87.80;;;;;;5238927;27;20285;-88
2024/04/21 11:07:16;;;;;;;1.43;1.07;;;9.60;85.70;;;;;;5236712;27;20518;-87
2024/04/21 11:09:42;;;;;;;1.10;1.00;;;9.30;85.70;;;;;;5240040;27;20230;-88
2024/04/21 11:12:09;;;;;;;1.47;1.37;;;9.10;86.90;;;;;;5239665;27;20470;-86
2024/04/21 11:14:34;;;;;;;1.63;1.53;;;9.10;86.90;;;;;;5238324;27;20276;-86
2024/04/21 11:17:01;;;;;;;4.70;2.50;;;9.20;87.30;;;;;;5236307;27;20874;-86
2024/04/21 11:19:29;;;;;;;0.90;0.80;;;9.10;84.90;;;;;;5239799;27;20238;-89
2024/04/21 11:21:55;;;;;;;1.33;1.20;;;8.80;85.50;;;;;;5240347;27;20912;-85
2024/04/21 11:24:20;;;;;;;0.80;0.70;;;8.80;85.30;;;;;;5260259;27;20489;-85
2024/04/21 11:26:48;;;;;;;2.30;1.00;;;9.20;87.40;;;;;;5251645;27;20517;-86
2024/04/21 11:29:16;;;;;;;1.80;1.70;;;9.30;85.80;;;;;;5265113;27;20241;-87
2024/04/21 11:31:41;;;;;;;0.93;0.83;;;9.10;83.80;;;;;;5262364;27;20588;-88
2024/04/21 11:34:07;;;;;;;1.10;1.00;;;9.10;84.80;;;;;;5261931;27;20484;-88
2024/04/21 11:36:33;;;;;;;4.40;1.40;;;9.70;86.20;;;;;;5265925;21;21180;-73
2024/04/21 11:38:59;;;;;;;1.23;1.13;;;10.00;84.40;;;;;;5298886;27;20557;-68
2024/04/21 11:41:24;;;;;;;1.50;1.40;;;10.00;83.50;;;;;;5301688;26;20542;-67
2024/04/21 11:43:52;;;;;;;1.10;1.00;;;9.70;82.10;;;;;;5304556;26;20236;-68
2024/04/21 11:46:17;;;;;;;1.80;1.70;;;9.50;84.70;;;;;;5302614;26;20286;-67
2024/04/21 11:48:51;;;;;;;2.03;1.93;;;10.00;84.60;;;;;;5313087;26;20474;-69
2024/04/21 11:51:17;;;;;;;1.80;1.73;;;10.40;84.30;;;;;;5335118;26;20804;-72
2024/04/21 11:53:42;;;;;;;1.40;1.30;;;9.90;82.40;;;;;;5337455;26;20951;-68
2024/04/21 11:56:08;;;;;;;1.70;1.60;;;9.50;83.10;;;;;;5320840;26;20235;-71
2024/04/21 11:58:33;;;;;;;2.40;2.13;;;9.60;83.30;;;;;;5319156;26;20275;-70
2024/04/21 12:01:00;;;;;;;1.03;0.93;;;9.50;82.20;;;;;;5333441;26;20829;-71
2024/04/21 12:03:26;;;;;;;1.10;1.00;;;9.20;82.20;;;;;;5315858;26;20278;-70
2024/04/21 12:05:51;;;;;;;1.20;1.10;;;9.00;83.90;;;;;;5331695;26;20469;-71
2024/04/21 12:08:17;;;;;;;1.87;1.77;;;9.00;83.20;;;;;;5323889;26;20246;-70
2024/04/21 12:10:42;;;;;;;1.00;0.90;;;8.90;82.20;;;;;;5311033;26;20304;-71
2024/04/21 12:13:08;;;;;;;1.37;1.27;;;9.20;85.10;;;;;;5332213;26;20637;-70
2024/04/21 12:15:33;;;;;;;0.93;0.80;;;9.80;82.30;;;;;;5328905;26;20770;-71
2024/04/21 12:18:06;;;;;;;1.30;1.00;;;10.30;84.70;;;;;;5324408;26;20239;-72
2024/04/21 12:20:32;;;;;;;0.93;0.83;;;10.80;82.80;;;;;;5327604;26;20619;-69
2024/04/21 12:22:57;;;;;;;1.97;1.30;;;11.30;82.00;;;;;;5332610;26;21129;-67
2024/04/21 12:25:23;;;;;;;1.37;1.27;;;11.80;80.80;;;;;;5331692;26;20826;-70
2024/04/21 12:27:48;;;;;;;0.97;0.87;;;12.10;81.10;;;;;;5335927;26;20239;-71
2024/04/21 12:30:14;;;;;;;1.40;1.30;;;12.50;79.90;;;;;;5326501;26;20261;-71
2024/04/21 12:32:40;;;;;;;0.90;0.80;;;12.60;78.30;;;;;;5323878;26;20232;-71
2024/04/21 12:35:05;;;;;;;0.80;0.80;;;12.70;76.90;;;;;;5335351;26;20540;-74
2024/04/21 12:37:31;;;;;;;1.30;1.20;;;12.90;77.10;;;;;;5327198;26;20282;-75
2024/04/21 12:39:56;;;;;;;1.37;1.27;;;13.00;77.20;;;;;;5336158;26;20347;-70
2024/04/21 12:42:22;;;;;;;2.00;1.43;;;13.00;76.50;;;;;;5334927;26;20339;-68
2024/04/21 12:44:47;;;;;;;1.03;0.80;;;12.50;75.90;;;;;;5331097;26;20673;-71
2024/04/21 12:47:13;;;;;;;0.90;0.90;;;11.80;76.80;;;;;;5333818;26;20649;-71
2024/04/21 12:49:39;;;;;;;1.33;1.23;;;10.90;77.30;;;;;;5330927;26;20261;-69
2024/04/21 12:52:05;;;;;;;1.00;1.00;;;10.20;77.80;;;;;;5338255;26;20578;-76
2024/04/21 12:54:30;;;;;;;1.10;1.00;;;10.20;80.70;;;;;;5335244;26;20341;-69
2024/04/21 12:56:56;;;;;;;1.37;1.10;;;10.90;82.20;;;;;;5325585;26;20282;-69
2024/04/21 12:59:22;;;;;;;0.90;0.80;;;11.70;80.60;;;;;;5335059;26;20231;-70
2024/04/21 13:01:48;;;;;;;0.90;0.90;;;12.40;79.60;;;;;;5323880;26;20235;-74
2024/04/21 13:04:14;;;;;;;1.53;1.43;;;12.90;77.60;;;;;;5325840;26;20523;-72
2024/04/21 13:06:39;;;;;;;1.00;0.90;;;12.70;75.30;;;;;;5338414;26;20269;-71
2024/04/21 13:09:05;;;;;;;1.00;0.90;;;11.90;74.10;;;;;;5338545;26;20231;-71
2024/04/21 13:11:30;;;;;;;2.80;1.40;;;11.30;76.20;;;;;;5325636;26;20659;-74
2024/04/21 13:13:56;;;;;;;1.27;1.07;;;11.00;77.40;;;;;;5334572;26;20242;-72
2024/04/21 13:16:21;;;;;;;2.00;1.23;;;10.50;78.20;;;;;;5331950;26;20235;-73
2024/04/21 13:18:47;;;;;;;1.63;1.53;;;10.10;77.80;;;;;;5336519;26;20325;-72
2024/04/21 13:21:12;;;;;;;1.20;0.90;;;10.10;79.10;;;;;;5334456;26;20269;-71
2024/04/21 13:23:38;;;;;;;0.90;0.80;;;10.70;80.00;;;;;;5332276;26;20267;-71
2024/04/21 13:26:03;;;;;;;0.97;0.87;;;11.70;79.70;;;;;;5334160;26;20235;-70
2024/04/21 13:28:31;;;;;;;2.67;2.27;;;11.80;76.90;;;;;;5336479;26;20242;-75
2024/04/21 13:30:59;;;;;;;1.93;1.10;;;11.40;76.10;;;;;;5334918;26;20298;-71
2024/04/21 13:33:25;;;;;;;1.07;1.07;;;10.80;77.20;;;;;;5340594;26;20545;-71
2024/04/21 13:35:50;;;;;;;0.90;0.80;;;10.30;76.40;;;;;;5330937;26;21088;-71
2024/04/21 13:38:16;;;;;;;1.77;1.40;;;10.30;78.30;;;;;;5332522;26;20622;-71
2024/04/21 13:40:42;;;;;;;1.40;1.30;;;10.80;79.90;;;;;;5338177;26;20286;-71
2024/04/21 13:43:07;;;;;;;0.90;0.80;;;11.30;77.40;;;;;;5331845;26;20239;-71
2024/04/21 13:45:32;;;;;;;1.90;1.50;;;11.20;77.40;;;;;;5333034;26;20231;-71
2024/04/21 13:47:58;;;;;;;0.90;0.80;;;11.20;78.10;;;;;;5331570;26;20239;-71
2024/04/21 13:50:24;;;;;;;1.00;0.90;;;11.20;77.50;;;;;;5332984;26;20720;-72
2024/04/21 13:52:49;;;;;;;7.10;2.00;;;11.70;78.50;;;;;;5340852;26;20227;-71
2024/04/21 13:55:15;;;;;;;1.23;1.23;;;11.80;77.80;;;;;;5331058;26;20742;-72
2024/04/21 13:57:40;;;;;;;1.47;1.00;;;11.50;75.80;;;;;;5335621;26;20283;-74
2024/04/21 14:00:06;;;;;;;1.00;0.90;;;11.20;75.60;;;;;;5329376;26;20728;-70
2024/04/21 14:02:32;;;;;;;1.30;1.20;;;10.90;75.50;;;;;;5333676;26;20230;-73
2024/04/21 14:04:57;;;;;;;1.23;1.23;;;10.60;77.00;;;;;;5337010;26;21072;-72
2024/04/21 14:07:23;;;;;;;0.80;0.70;;;10.50;78.60;;;;;;5333152;26;20262;-71
2024/04/21 14:09:48;;;;;;;1.20;1.10;;;10.80;80.40;;;;;;5337765;26;20285;-73
2024/04/21 14:12:14;;;;;;;1.53;1.07;;;11.60;79.40;;;;;;5336957;26;20235;-68
2024/04/21 14:14:40;;;;;;;1.23;1.13;;;12.30;75.70;;;;;;5335250;26;20232;-70
2024/04/21 14:17:05;;;;;;;0.90;0.80;;;12.20;75.30;;;;;;5335472;26;20269;-69
2024/04/21 14:19:31;;;;;;;1.30;1.20;;;11.90;76.10;;;;;;5333582;26;20282;-69
2024/04/21 14:21:56;;;;;;;1.00;0.90;;;11.40;74.80;;;;;;5337080;26;20244;-71
2024/04/21 14:24:22;;;;;;;0.80;0.80;;;11.00;75.40;;;;;;5336670;26;20727;-70
2024/04/21 14:26:48;;;;;;;1.07;0.90;;;11.00;76.60;;;;;;5335398;26;20235;-68
2024/04/21 14:29:14;;;;;;;1.57;1.47;;;11.30;75.40;;;;;;5336388;26;20366;-69
2024/04/21 14:31:40;;;;;;;0.90;0.80;;;11.20;75.90;;;;;;5316700;26;21252;-70
2024/04/21 14:34:06;;;;;;;1.63;1.23;;;11.00;75.60;;;;;;5334904;26;20667;-68
2024/04/21 14:36:31;;;;;;;1.00;0.90;;;10.80;76.40;;;;;;5330366;26;20527;-68
2024/04/21 14:38:57;;;;;;;2.10;1.17;;;10.70;77.70;;;;;;5331427;26;20478;-67
2024/04/21 14:41:22;;;;;;;1.03;0.93;;;11.40;75.70;;;;;;5328734;26;20235;-70
2024/04/21 14:43:48;;;;;;;3.07;0.90;;;12.10;77.40;;;;;;5337155;26;20286;-68
2024/04/21 14:46:13;;;;;;;1.00;0.90;;;12.30;74.20;;;;;;5336033;26;20231;-69
2024/04/21 14:48:39;;;;;;;7.33;2.27;;;11.80;75.00;;;;;;5334136;26;20304;-63
2024/04/21 14:51:06;;;;;;;0.70;0.70;;;11.10;76.10;;;;;;5340045;26;20235;-68
2024/04/21 14:53:32;;;;;;;2.00;1.40;;;10.50;76.70;;;;;;5335231;26;20276;-66
2024/04/21 14:56:04;;;;;;;1.10;0.90;;;10.30;77.70;;;;;;5337450;26;20798;-67
2024/04/21 14:58:30;;;;;;;1.00;0.90;;;10.10;78.20;;;;;;5335845;26;20280;-67
2024/04/21 15:00:55;;;;;;;1.13;1.03;;;9.90;78.10;;;;;;5337417;26;20461;-75
2024/04/21 15:03:22;;;;;;;2.00;1.67;;;9.90;78.30;;;;;;5337150;26;20817;-71
2024/04/21 15:05:48;;;;;;;1.30;1.20;;;10.00;78.10;;;;;;5337304;26;20228;-69
2024/04/21 15:08:14;;;;;;;1.53;1.27;;;10.10;79.00;;;;;;5335963;26;21139;-67
2024/04/21 15:10:39;;;;;;;2.00;1.10;;;10.30;77.30;;;;;;5334602;26;20266;-68
2024/04/21 15:13:05;;;;;;;2.07;1.33;;;10.40;77.20;;;;;;5337022;26;20341;-66
2024/04/21 15:15:30;;;;;;;1.97;1.90;;;10.40;76.40;;;;;;5332422;26;20640;-68
2024/04/21 15:17:56;;;;;;;0.90;0.80;;;10.30;75.90;;;;;;5330079;26;20762;-71
2024/04/21 15:20:22;;;;;;;1.20;1.00;;;10.30;76.30;;;;;;5333247;26;20230;-71
2024/04/21 15:22:48;;;;;;;1.20;1.10;;;11.10;75.80;;;;;;5336555;26;20493;-68
2024/04/21 15:25:14;;;;;;;1.00;0.90;;;12.00;71.30;;;;;;5334274;26;20521;-67
2024/04/21 15:27:45;;;;;;;0.90;0.90;;;12.00;71.20;;;;;;5333646;26;20336;-68
2024/04/21 15:30:11;;;;;;;1.07;1.00;;;11.60;72.60;;;;;;5334977;26;20576;-67
2024/04/21 15:32:37;;;;;;;0.90;0.80;;;11.00;73.80;;;;;;5333308;26;20550;-68
2024/04/21 15:35:02;;;;;;;0.90;0.90;;;10.60;75.50;;;;;;5337566;26;20516;-68
2024/04/21 15:37:31;;;;;;;1.20;1.10;;;10.20;76.60;;;;;;5330263;26;20286;-66
2024/04/21 15:39:57;;;;;;;1.00;0.90;;;9.90;75.80;;;;;;5338921;26;20230;-68
2024/04/21 15:42:23;;;;;;;1.23;1.10;;;9.60;75.80;;;;;;5330695;26;20481;-66
2024/04/21 15:44:48;;;;;;;1.10;1.00;;;9.50;77.90;;;;;;5317712;26;20811;-67
2024/04/21 15:47:14;;;;;;;1.03;0.93;;;9.40;78.30;;;;;;5326426;26;20270;-66
2024/04/21 15:49:39;;;;;;;1.20;1.10;;;9.30;77.80;;;;;;5336658;26;20230;-67
2024/04/21 15:52:05;;;;;;;0.80;0.70;;;9.20;78.00;;;;;;5337853;26;20235;-67
2024/04/21 15:54:31;;;;;;;1.00;0.90;;;9.20;79.50;;;;;;5335015;26;20238;-67
2024/04/21 15:56:56;;;;;;;1.40;1.20;;;9.20;80.10;;;;;;5335576;26;20402;-66
2024/04/21 15:59:22;;;;;;;1.40;1.20;;;9.30;80.90;;;;;;5335069;26;20473;-68
2024/04/21 16:01:47;;;;;;;1.13;1.03;;;9.80;80.70;;;;;;5335480;26;20235;-68
2024/04/21 16:04:13;;;;;;;0.83;0.77;;;10.50;78.50;;;;;;5335777;26;20265;-68
2024/04/21 16:06:38;;;;;;;2.80;1.20;;;10.40;78.10;;;;;;5333404;26;20236;-68
2024/04/21 16:09:05;;;;;;;0.90;0.80;;;10.20;78.70;;;;;;5330208;26;20579;-68
2024/04/21 16:11:30;;;;;;;1.90;1.80;;;10.10;78.00;;;;;;5337576;26;20231;-67
2024/04/21 16:13:56;;;;;;;1.87;1.13;;;11.10;77.40;;;;;;5339079;26;20469;-68
2024/04/21 16:16:21;;;;;;;1.10;1.00;;;11.90;76.80;;;;;;5339521;26;20243;-68
2024/04/21 16:18:47;;;;;;;1.00;1.00;;;12.60;73.40;;;;;;5335681;26;20240;-68
2024/04/21 16:21:13;;;;;;;1.00;0.90;;;13.10;72.40;;;;;;5334798;26;20257;-68
2024/04/21 16:23:38;;;;;;;3.03;1.93;;;13.30;71.80;;;;;;5338051;26;20275;-67
2024/04/21 16:26:04;;;;;;;1.63;1.50;;;13.60;69.80;;;;;;5340149;26;20274;-69
2024/04/21 16:28:29;;;;;;;2.13;1.37;;;13.50;70.50;;;;;;5338462;26;20239;-67
2024/04/21 16:30:55;;;;;;;1.33;1.27;;;13.60;70.50;;;;;;5340241;26;20243;-68
2024/04/21 16:33:20;;;;;;;1.40;1.33;;;13.90;69.20;;;;;;5338151;26;20230;-68
2024/04/21 16:35:46;;;;;;;1.10;1.00;;;14.00;68.30;;;;;;5338840;26;20239;-68
2024/04/21 16:38:12;;;;;;;0.90;0.90;;;14.00;68.80;;;;;;5335402;26;20235;-68
2024/04/21 16:40:38;;;;;;;1.10;1.00;;;13.20;70.10;;;;;;5336619;26;20732;-68
2024/04/21 16:43:04;;;;;;;0.93;0.87;;;12.50;71.00;;;;;;5341017;26;20636;-66
2024/04/21 16:45:30;;;;;;;0.93;0.83;;;12.40;71.00;;;;;;5339942;26;20299;-68
2024/04/21 16:48:04;;;;;;;1.00;0.90;;;12.40;71.70;;;;;;5340262;26;20618;-68
2024/04/21 16:50:30;;;;;;;1.37;1.27;;;12.50;71.80;;;;;;5325738;26;20596;-68
2024/04/21 16:52:55;;;;;;;1.93;1.30;;;12.40;73.00;;;;;;5340636;26;20539;-67
2024/04/21 16:55:21;;;;;;;1.63;1.53;;;12.20;72.40;;;;;;5338663;26;20514;-67
2024/04/21 16:57:54;;;;;;;1.40;1.30;;;12.00;73.40;;;;;;5341103;26;20231;-68
2024/04/21 17:00:21;;;;;;;3.13;1.50;;;11.30;74.10;;;;;;5333049;26;20231;-68
2024/04/21 17:02:47;;;;;;;1.83;1.63;;;10.60;75.50;;;;;;5325762;26;20508;-68
2024/04/21 17:05:13;;;;;;;1.13;1.03;;;10.20;77.10;;;;;;5339806;26;20514;-67
2024/04/21 17:07:41;;;;;;;1.20;1.17;;;9.90;78.20;;;;;;5335638;26;21003;-67
2024/04/21 17:10:07;;;;;;;1.23;1.00;;;9.50;79.20;;;;;;5341183;26;20231;-67
2024/04/21 17:12:34;;;;;;;1.53;1.37;;;9.10;81.10;;;;;;5339774;26;20504;-65
2024/04/21 17:15:00;;;;;;;1.00;1.00;;;8.70;83.30;;;;;;5339414;26;20831;-66
2024/04/21 17:17:25;;;;;;;1.33;0.90;;;8.50;84.10;;;;;;5339834;26;20566;-66
2024/04/21 17:19:51;;;;;;;3.63;1.13;;;8.30;84.50;;;;;;5326032;26;20635;-66
2024/04/21 17:22:17;;;;;;;1.00;0.90;;;8.20;86.20;;;;;;5340550;26;20317;-67
2024/04/21 17:24:43;;;;;;;1.30;1.20;;;8.10;86.10;;;;;;5340727;26;20274;-67
2024/04/21 17:27:09;;;;;;;1.10;1.00;;;8.10;86.40;;;;;;5341074;26;20227;-67